createdAt,value
2018-02-19T00:01:52.751Z,34.47
2018-02-19T00:04:20.262Z,36.92
2018-02-19T00:06:51.445Z,33.60
2018-02-19T00:09:19.866Z,35.45
2018-02-19T00:11:47.795Z,35.45
2018-02-19T00:14:15.626Z,36.33
2018-02-19T00:16:43.324Z,37.88
2018-02-19T00:19:11.538Z,35.17
2018-02-19T00:21:39.913Z,36.38
2018-02-19T00:24:08.549Z,34.22
2018-02-19T00:26:36.037Z,33.30
2018-02-19T00:29:06.631Z,35.63
2018-02-19T00:31:34.727Z,34.55
2018-02-19T00:34:02.262Z,38.08
2018-02-19T00:36:31.444Z,34.38
2018-02-19T00:38:58.926Z,38.92
2018-02-19T00:41:27.079Z,36.65
2018-02-19T00:43:55.183Z,36.75
2018-02-19T00:46:22.848Z,39.70
2018-02-19T00:48:52.119Z,36.28
2018-02-19T00:51:21.872Z,36.45
2018-02-19T00:53:50.070Z,39.10
2018-02-19T00:56:17.857Z,33.97
2018-02-19T00:58:45.535Z,34.40
2018-02-19T01:01:14.118Z,34.88
2018-02-19T01:03:41.833Z,31.50
2018-02-19T01:06:09.634Z,38.50
2018-02-19T01:08:37.146Z,35.33
2018-02-19T01:11:04.651Z,33.53
2018-02-19T01:13:32.291Z,30.83
2018-02-19T01:15:59.861Z,36.03
2018-02-19T01:18:27.695Z,34.67
2018-02-19T01:20:55.619Z,35.50
2018-02-19T01:23:23.878Z,31.37
2018-02-19T01:25:51.361Z,33.90
2018-02-19T01:28:21.546Z,34.00
2018-02-19T01:30:51.243Z,30.88
2018-02-19T01:33:19.098Z,35.95
2018-02-19T01:35:48.242Z,31.23
2018-02-19T01:38:15.736Z,32.75
2018-02-19T01:40:44.982Z,32.83
2018-02-19T01:43:13.933Z,34.30
2018-02-19T01:45:42.251Z,33.67
2018-02-19T01:48:10.462Z,33.08
2018-02-19T01:50:38.725Z,31.10
2018-02-19T01:53:07.969Z,30.88
2018-02-19T01:55:35.736Z,34.20
2018-02-19T01:58:03.261Z,29.85
2018-02-19T02:00:31.656Z,29.33
2018-02-19T02:03:02.066Z,29.90
2018-02-19T02:05:29.706Z,29.37
2018-02-19T02:07:57.229Z,32.40
2018-02-19T02:10:24.726Z,31.15
2018-02-19T02:12:58.173Z,32.20
2018-02-19T02:15:27.199Z,31.77
2018-02-19T02:17:55.556Z,29.08
2018-02-19T02:20:26.301Z,28.98
2018-02-19T02:22:54.808Z,29.15
2018-02-19T02:25:25.787Z,28.73
2018-02-19T02:27:54.322Z,29.92
2018-02-19T02:30:22.054Z,30.62
2018-02-19T02:32:49.881Z,30.30
2018-02-19T02:35:17.712Z,29.77
2018-02-19T02:37:45.249Z,31.55
2018-02-19T02:40:15.332Z,30.15
2018-02-19T02:42:43.030Z,31.48
2018-02-19T02:45:12.561Z,31.00
2018-02-19T02:47:40.059Z,30.75
2018-02-19T02:50:09.336Z,28.00
2018-02-19T02:52:36.848Z,29.37
2018-02-19T02:55:04.352Z,29.25
2018-02-19T02:57:31.838Z,28.40
2018-02-19T03:00:00.102Z,29.08
2018-02-19T03:02:28.583Z,30.27
2018-02-19T03:04:56.623Z,26.92
2018-02-19T03:07:24.201Z,27.62
2018-02-19T03:09:52.025Z,30.05
2018-02-19T03:12:19.561Z,27.77
2018-02-19T03:14:47.767Z,31.73
2018-02-19T03:17:15.271Z,28.33
2018-02-19T03:19:42.772Z,29.37
2018-02-19T03:22:10.293Z,27.65
2018-02-19T03:24:39.434Z,29.25
2018-02-19T03:27:06.955Z,27.48
2018-02-19T03:29:35.259Z,27.55
2018-02-19T03:32:03.131Z,28.52
2018-02-19T03:34:30.657Z,28.92
2018-02-19T03:36:59.755Z,28.92
2018-02-19T03:39:28.028Z,30.20
2018-02-19T03:41:56.308Z,29.20
2018-02-19T03:44:26.852Z,27.70
2018-02-19T03:46:54.393Z,28.05
2018-02-19T03:49:24.194Z,31.17
2018-02-19T03:51:51.806Z,31.23
2018-02-19T03:54:19.313Z,28.95
2018-02-19T03:56:46.933Z,29.30
2018-02-19T03:59:14.659Z,28.33
2018-02-19T04:01:42.145Z,28.12
2018-02-19T04:04:09.753Z,29.98
2018-02-19T04:06:37.503Z,27.33
2018-02-19T04:09:05.278Z,29.58
2018-02-19T04:11:32.871Z,32.22
2018-02-19T04:14:01.863Z,29.00
2018-02-19T04:16:30.325Z,28.50
2018-02-19T04:18:57.860Z,30.65
2018-02-19T04:21:25.348Z,28.12
2018-02-19T04:23:54.515Z,28.10
2018-02-19T04:26:22.286Z,31.40
2018-02-19T04:28:50.026Z,29.02
2018-02-19T04:31:17.534Z,27.30
2018-02-19T04:33:45.271Z,26.92
2018-02-19T04:36:13.367Z,28.35
2018-02-19T04:38:40.846Z,30.15
2018-02-19T04:41:09.122Z,29.55
2018-02-19T04:43:36.626Z,29.27
2018-02-19T04:46:08.674Z,29.60
2018-02-19T04:48:36.471Z,30.33
2018-02-19T04:51:04.026Z,30.48
2018-02-19T04:53:31.514Z,30.30
2018-02-19T04:55:59.148Z,28.95
2018-02-19T04:58:26.849Z,30.25
2018-02-19T05:00:56.011Z,28.48
2018-02-19T05:03:23.750Z,31.70
2018-02-19T05:05:51.434Z,31.70
2018-02-19T05:08:18.934Z,30.55
2018-02-19T05:10:47.198Z,29.90
2018-02-19T05:13:14.674Z,29.10
2018-02-19T05:15:42.234Z,30.80
2018-02-19T05:18:10.216Z,30.00
2018-02-19T05:20:38.027Z,27.98
2018-02-19T05:23:05.586Z,29.98
2018-02-19T05:25:33.906Z,29.83
2018-02-19T05:28:03.281Z,28.20
2018-02-19T05:30:31.557Z,30.75
2018-02-19T05:32:59.204Z,28.67
2018-02-19T05:35:26.735Z,31.55
2018-02-19T05:37:54.469Z,30.92
2018-02-19T05:40:22.737Z,30.55
2018-02-19T05:42:54.363Z,27.37
2018-02-19T05:45:21.844Z,29.23
2018-02-19T05:47:51.207Z,29.23
2018-02-19T05:50:19.642Z,29.27
2018-02-19T05:52:48.206Z,29.75
2018-02-19T05:55:16.364Z,31.52
2018-02-19T05:57:43.887Z,27.60
2018-02-19T06:00:11.406Z,29.55
2018-02-19T06:02:39.687Z,28.83
2018-02-19T06:05:07.954Z,30.73
2018-02-19T06:07:36.254Z,28.10
2018-02-19T06:10:04.238Z,29.77
2018-02-19T06:12:31.738Z,29.05
2018-02-19T06:14:59.302Z,30.73
2018-02-19T06:17:26.786Z,28.00
2018-02-19T06:19:55.060Z,29.25
2018-02-19T06:22:23.459Z,30.65
2018-02-19T06:24:50.966Z,30.62
2018-02-19T06:27:19.223Z,28.55
2018-02-19T06:29:48.489Z,29.35
2018-02-19T06:32:16.026Z,29.85
2018-02-19T06:34:43.617Z,29.75
2018-02-19T06:37:11.046Z,28.58
2018-02-19T06:39:39.305Z,28.45
2018-02-19T06:42:06.800Z,28.80
2018-02-19T06:44:35.138Z,28.35
2018-02-19T06:47:04.605Z,28.15
2018-02-19T06:49:32.092Z,30.17
2018-02-19T06:51:59.722Z,29.02
2018-02-19T06:54:27.249Z,29.92
2018-02-19T06:56:57.410Z,30.40
2018-02-19T06:59:26.598Z,29.85
2018-02-19T07:01:54.092Z,26.05
2018-02-19T07:04:21.590Z,30.05
2018-02-19T07:06:49.179Z,29.67
2018-02-19T07:09:16.750Z,30.73
2018-02-19T07:11:45.230Z,26.73
2018-02-19T07:14:12.838Z,30.67
2018-02-19T07:16:40.478Z,31.42
2018-02-19T07:19:08.156Z,30.80
2018-02-19T07:21:36.450Z,28.42
2018-02-19T07:24:04.122Z,31.70
2018-02-19T07:26:31.777Z,30.05
2018-02-19T07:28:59.491Z,29.75
2018-02-19T07:31:28.162Z,27.37
2018-02-19T07:33:55.740Z,30.23
2018-02-19T07:36:23.377Z,29.05
2018-02-19T07:38:50.997Z,29.15
2018-02-19T07:41:18.607Z,28.25
2018-02-19T07:43:46.250Z,28.50
2018-02-19T07:46:14.038Z,28.00
2018-02-19T07:48:41.689Z,29.75
2018-02-19T07:51:09.236Z,26.45
2018-02-19T07:53:36.926Z,30.45
2018-02-19T07:56:05.434Z,28.12
2018-02-19T07:58:33.281Z,28.17
2018-02-19T08:01:00.823Z,29.58
2018-02-19T08:03:28.330Z,29.35
2018-02-19T08:05:55.943Z,28.10
2018-02-19T08:08:23.466Z,28.35
2018-02-19T08:10:50.974Z,26.33
2018-02-19T08:13:18.479Z,30.00
2018-02-19T08:15:45.974Z,28.65
2018-02-19T08:18:13.466Z,26.60
2018-02-19T08:20:40.954Z,28.80
2018-02-19T08:23:09.783Z,27.70
2018-02-19T08:25:37.276Z,26.83
2018-02-19T08:28:04.801Z,26.50
2018-02-19T08:30:32.301Z,28.02
2018-02-19T08:32:59.815Z,29.73
2018-02-19T08:35:27.338Z,27.67
2018-02-19T08:37:54.839Z,25.27
2018-02-19T08:40:22.326Z,26.30
2018-02-19T08:42:49.823Z,26.27
2018-02-19T08:45:19.333Z,27.02
2018-02-19T08:47:47.655Z,25.33
2018-02-19T08:50:15.198Z,26.05
2018-02-19T08:52:42.707Z,24.83
2018-02-19T08:55:10.202Z,26.15
2018-02-19T08:57:37.714Z,26.95
2018-02-19T09:00:05.200Z,27.17
2018-02-19T09:02:33.450Z,27.10
2018-02-19T09:05:00.965Z,25.20
2018-02-19T09:07:28.454Z,24.12
2018-02-19T09:09:55.950Z,24.73
2018-02-19T09:12:24.223Z,23.15
2018-02-19T09:14:52.469Z,24.60
2018-02-19T09:17:19.954Z,23.00
2018-02-19T09:19:48.236Z,24.58
2018-02-19T09:22:16.487Z,22.77
2018-02-19T09:24:43.978Z,24.10
2018-02-19T09:27:12.242Z,21.95
2018-02-19T09:29:40.502Z,22.52
2018-02-19T09:32:08.051Z,20.70
2018-02-19T09:34:35.546Z,22.33
2018-02-19T09:37:04.486Z,21.60
2018-02-19T09:39:32.006Z,23.80
2018-02-19T09:42:00.339Z,20.48
2018-02-19T09:44:27.826Z,21.90
2018-02-19T09:46:56.126Z,21.55
2018-02-19T09:49:23.646Z,23.10
2018-02-19T09:51:51.217Z,22.05
2018-02-19T09:54:18.722Z,22.33
2018-02-19T09:56:46.234Z,20.98
2018-02-19T09:59:13.710Z,22.05
2018-02-19T10:01:41.535Z,19.05
2018-02-19T10:04:09.142Z,23.15
2018-02-19T10:06:36.625Z,20.45
2018-02-19T10:09:04.149Z,20.02
2018-02-19T10:11:31.874Z,20.85
2018-02-19T10:13:59.369Z,20.98
2018-02-19T10:16:27.658Z,17.33
2018-02-19T10:18:55.289Z,19.62
2018-02-19T10:21:22.822Z,19.48
2018-02-19T10:23:50.330Z,19.05
2018-02-19T10:26:18.583Z,18.87
2018-02-19T10:28:46.062Z,19.85
2018-02-19T10:31:14.454Z,19.58
2018-02-19T10:33:41.987Z,19.50
2018-02-19T10:36:09.461Z,19.80
2018-02-19T10:38:37.746Z,18.25
2018-02-19T10:41:05.993Z,19.12
2018-02-19T10:43:33.483Z,18.70
2018-02-19T10:46:01.786Z,18.77
2018-02-19T10:48:29.298Z,18.80
2018-02-19T10:50:57.563Z,18.98
2018-02-19T10:53:25.146Z,18.08
2018-02-19T10:55:53.399Z,19.87
2018-02-19T10:58:20.878Z,18.87
2018-02-19T11:00:48.413Z,19.12
2018-02-19T11:03:15.896Z,17.00
2018-02-19T11:05:44.150Z,19.08
2018-02-19T11:08:11.762Z,18.25
2018-02-19T11:10:39.266Z,18.95
2018-02-19T11:13:06.750Z,18.58
2018-02-19T11:15:35.056Z,19.73
2018-02-19T11:18:02.552Z,19.75
2018-02-19T11:20:30.898Z,18.80
2018-02-19T11:22:58.411Z,19.30
2018-02-19T11:25:25.889Z,18.77
2018-02-19T11:27:53.400Z,19.50
2018-02-19T11:30:20.968Z,17.67
2018-02-19T11:32:48.463Z,18.48
2018-02-19T11:35:16.730Z,19.65
2018-02-19T11:37:45.010Z,20.10
2018-02-19T11:40:13.282Z,19.25
2018-02-19T11:42:41.531Z,20.15
2018-02-19T11:45:09.062Z,20.98
2018-02-19T11:47:36.547Z,20.90
2018-02-19T11:50:04.038Z,18.67
2018-02-19T11:52:32.310Z,18.70
2018-02-19T11:55:00.559Z,19.27
2018-02-19T11:57:28.042Z,17.85
2018-02-19T11:59:56.378Z,20.73
2018-02-19T12:02:23.831Z,19.50
2018-02-19T12:04:51.318Z,18.30
2018-02-19T12:07:18.810Z,18.92
2018-02-19T12:09:47.079Z,19.12
2018-02-19T12:12:15.327Z,18.90
2018-02-19T12:14:42.824Z,21.73
2018-02-19T12:17:10.311Z,19.65
2018-02-19T12:19:37.827Z,20.00
2018-02-19T12:22:06.074Z,20.50
2018-02-19T12:24:33.553Z,19.20
2018-02-19T12:27:01.836Z,19.62
2018-02-19T12:29:30.103Z,17.95
2018-02-19T12:31:58.383Z,19.45
2018-02-19T12:34:26.702Z,20.52
2018-02-19T12:36:54.938Z,19.70
2018-02-19T12:39:22.418Z,19.45
2018-02-19T12:41:50.678Z,21.55
2018-02-19T12:44:18.974Z,19.42
2018-02-19T12:46:46.454Z,21.35
2018-02-19T12:49:13.953Z,19.70
2018-02-19T12:51:41.574Z,20.02
2018-02-19T12:54:09.063Z,19.95
2018-02-19T12:56:36.550Z,19.70
2018-02-19T12:59:04.841Z,18.95
2018-02-19T13:01:32.326Z,18.52
2018-02-19T13:03:59.827Z,19.00
2018-02-19T13:06:27.338Z,19.77
2018-02-19T13:08:54.834Z,22.35
2018-02-19T13:11:22.318Z,18.52
2018-02-19T13:13:50.610Z,21.58
2018-02-19T13:16:18.107Z,23.30
2018-02-19T13:18:45.694Z,20.88
2018-02-19T13:21:13.230Z,21.05
2018-02-19T13:23:40.928Z,20.65
2018-02-19T13:26:09.194Z,18.73
2018-02-19T13:28:36.682Z,22.37
2018-02-19T13:31:04.166Z,18.48
2018-02-19T13:33:31.690Z,19.58
2018-02-19T13:35:59.974Z,17.52
2018-02-19T13:38:28.225Z,19.15
2018-02-19T13:40:55.710Z,19.00
2018-02-19T13:43:29.847Z,20.42
2018-02-19T13:45:57.355Z,20.62
2018-02-19T13:48:24.843Z,18.80
2018-02-19T13:50:53.115Z,21.08
2018-02-19T13:53:21.366Z,21.37
2018-02-19T13:55:48.859Z,20.85
2018-02-19T13:58:17.151Z,19.98
2018-02-19T14:00:44.682Z,20.08
2018-02-19T14:03:12.934Z,20.60
2018-02-19T14:05:40.430Z,18.42
2018-02-19T14:08:07.924Z,17.77
2018-02-19T14:10:35.438Z,20.62
2018-02-19T14:13:03.709Z,21.12
2018-02-19T14:15:31.199Z,18.02
2018-02-19T14:17:58.686Z,18.95
2018-02-19T14:20:26.178Z,20.52
2018-02-19T14:22:54.458Z,18.12
2018-02-19T14:25:22.790Z,19.70
2018-02-19T14:27:50.322Z,19.15
2018-02-19T14:30:17.806Z,19.02
2018-02-19T14:32:45.388Z,20.45
2018-02-19T14:35:12.874Z,19.70
2018-02-19T14:37:40.365Z,20.92
2018-02-19T14:40:07.913Z,19.73
2018-02-19T14:42:35.395Z,20.17
2018-02-19T14:45:02.880Z,19.98
2018-02-19T14:47:30.403Z,21.52
2018-02-19T14:49:57.892Z,20.08
2018-02-19T14:52:25.382Z,21.87
2018-02-19T14:54:53.662Z,21.33
2018-02-19T14:57:21.975Z,20.00
2018-02-19T14:59:49.534Z,19.65
2018-02-19T15:02:18.561Z,20.42
2018-02-19T15:04:46.878Z,19.60
2018-02-19T15:07:14.374Z,19.02
2018-02-19T15:09:41.894Z,21.12
2018-02-19T15:12:10.202Z,20.98
2018-02-19T15:14:37.682Z,22.85
2018-02-19T15:17:05.174Z,21.95
2018-02-19T15:22:06.720Z,20.27
2018-02-19T15:24:34.224Z,23.75
2018-02-19T15:27:02.478Z,21.15
2018-02-19T15:29:29.967Z,22.25
2018-02-19T15:31:57.454Z,21.95
2018-02-19T15:34:24.975Z,20.12
2018-02-19T15:36:53.250Z,21.17
2018-02-19T15:39:20.742Z,22.10
2018-02-19T15:41:48.246Z,22.30
2018-02-19T15:44:15.840Z,21.02
2018-02-19T15:46:43.448Z,21.48
2018-02-19T15:49:10.989Z,21.60
2018-02-19T15:51:38.474Z,21.25
2018-02-19T15:54:05.951Z,21.95
2018-02-19T15:56:33.486Z,22.00
2018-02-19T15:59:00.970Z,21.35
2018-02-19T16:01:29.385Z,20.52
2018-02-19T16:03:57.729Z,21.25
2018-02-19T16:06:25.522Z,20.52
2018-02-19T16:08:53.210Z,21.17
2018-02-19T16:11:20.806Z,22.60
2018-02-19T16:13:49.293Z,23.27
2018-02-19T16:16:16.871Z,21.75
2018-02-19T16:18:45.211Z,21.75
2018-02-19T16:21:12.943Z,22.30
2018-02-19T16:23:40.687Z,21.17
2018-02-19T16:26:08.367Z,21.40
2018-02-19T16:28:36.915Z,20.65
2018-02-19T16:31:05.186Z,21.52
2018-02-19T16:33:33.646Z,22.55
2018-02-19T16:36:01.305Z,22.05
2018-02-19T16:38:29.706Z,21.42
2018-02-19T16:40:58.100Z,22.20
2018-02-19T16:43:26.438Z,22.33
2018-02-19T16:45:54.142Z,21.92
2018-02-19T16:48:21.851Z,21.02
2018-02-19T16:50:49.612Z,21.80
2018-02-19T16:53:17.113Z,22.23
2018-02-19T16:55:44.693Z,20.42
2018-02-19T16:58:12.234Z,22.37
2018-02-19T17:00:39.778Z,22.20
2018-02-19T17:03:07.263Z,22.73
2018-02-19T17:05:35.633Z,21.83
2018-02-19T17:08:03.234Z,22.62
2018-02-19T17:10:31.035Z,23.70
2018-02-19T17:12:58.523Z,22.30
2018-02-19T17:15:26.238Z,21.85
2018-02-19T17:17:53.847Z,23.50
2018-02-19T17:20:22.122Z,22.25
2018-02-19T17:22:50.379Z,23.05
2018-02-19T17:25:17.945Z,24.30
2018-02-19T17:27:47.033Z,23.25
2018-02-19T17:30:15.613Z,24.55
2018-02-19T17:32:43.948Z,23.17
2018-02-19T17:35:11.454Z,22.10
2018-02-19T17:37:39.115Z,24.00
2018-02-19T17:40:06.801Z,22.52
2018-02-19T17:42:35.181Z,24.23
2018-02-19T17:45:03.051Z,23.73
2018-02-19T17:47:30.797Z,24.73
2018-02-19T17:49:58.549Z,23.67
2018-02-19T17:52:26.202Z,22.17
2018-02-19T17:54:53.811Z,24.95
2018-02-19T17:57:21.394Z,23.98
2018-02-19T17:59:48.999Z,25.02
2018-02-19T18:02:16.760Z,21.98
2018-02-19T18:04:44.323Z,21.87
2018-02-19T18:07:11.956Z,25.62
2018-02-19T18:09:39.546Z,23.67
2018-02-19T18:12:07.086Z,22.65
2018-02-19T18:14:34.630Z,24.73
2018-02-19T18:17:02.208Z,24.00
2018-02-19T18:19:29.886Z,25.88
2018-02-19T18:21:57.418Z,24.50
2018-02-19T18:24:25.068Z,25.60
2018-02-19T18:26:54.281Z,27.13
2018-02-19T18:29:21.950Z,25.62
2018-02-19T18:31:50.439Z,26.77
2018-02-19T18:34:17.994Z,29.50
2018-02-19T18:36:46.298Z,28.62
2018-02-19T18:39:14.767Z,27.20
2018-02-19T18:41:42.297Z,29.27
2018-02-19T18:44:10.043Z,26.55
2018-02-19T18:46:37.566Z,29.02
2018-02-19T18:49:05.191Z,30.58
2018-02-19T18:51:32.988Z,31.25
2018-02-19T18:54:00.697Z,28.55
2018-02-19T18:56:28.495Z,30.58
2018-02-19T18:58:57.109Z,28.35
2018-02-19T19:01:24.735Z,30.92
2018-02-19T19:03:53.200Z,32.03
2018-02-19T19:06:20.760Z,29.25
2018-02-19T19:09:00.307Z,29.25
2018-02-19T19:11:27.882Z,31.10
2018-02-19T19:13:55.624Z,30.98
2018-02-19T19:16:24.097Z,30.42
2018-02-19T19:18:51.912Z,27.50
2018-02-19T19:21:19.799Z,32.90
2018-02-19T19:23:47.399Z,32.33
2018-02-19T19:26:14.945Z,31.08
2018-02-19T19:28:42.491Z,31.75
2018-02-19T19:31:10.754Z,31.42
2018-02-19T19:33:39.010Z,28.90
2018-02-19T19:36:06.534Z,30.30
2018-02-19T19:38:34.045Z,30.85
2018-02-19T19:41:01.551Z,27.77
2018-02-19T19:43:29.043Z,28.85
2018-02-19T19:45:56.570Z,29.92
2018-02-19T19:48:24.371Z,29.15
2018-02-19T19:50:51.989Z,29.60
2018-02-19T19:53:19.474Z,27.67
2018-02-19T19:55:46.981Z,29.85
2018-02-19T19:58:15.247Z,28.80
2018-02-19T20:00:43.512Z,28.20
2018-02-19T20:03:10.999Z,31.48
2018-02-19T20:05:38.572Z,31.10
2018-02-19T20:08:06.171Z,27.25
2018-02-19T20:10:34.479Z,28.38
2018-02-19T20:13:02.762Z,29.42
2018-02-19T20:15:31.031Z,29.58
2018-02-19T20:17:59.291Z,28.60
2018-02-19T20:20:26.794Z,26.40
2018-02-19T20:22:54.309Z,25.25
2018-02-19T20:25:21.798Z,28.95
2018-02-19T20:27:50.228Z,27.65
2018-02-19T20:30:17.956Z,28.12
2018-02-19T20:32:45.980Z,29.40
2018-02-19T20:35:14.472Z,27.77
2018-02-19T20:37:43.011Z,28.85
2018-02-19T20:40:10.537Z,28.05
2018-02-19T20:42:38.951Z,27.37
2018-02-19T20:45:06.625Z,27.10
2018-02-19T20:47:35.103Z,29.20
2018-02-19T20:50:02.943Z,27.40
2018-02-19T20:52:30.517Z,27.42
2018-02-19T20:54:58.043Z,26.08
2018-02-19T20:57:26.402Z,28.55
2018-02-19T20:59:53.983Z,26.60
2018-02-19T21:02:21.500Z,27.48
2018-02-19T21:04:48.988Z,22.60
2018-02-19T21:07:17.274Z,23.17
2018-02-19T21:09:45.554Z,23.42
2018-02-19T21:12:13.835Z,25.60
2018-02-19T21:14:41.364Z,25.02
2018-02-19T21:17:08.892Z,25.40
2018-02-19T21:19:36.390Z,25.80
2018-02-19T21:22:04.319Z,24.30
2018-02-19T21:24:31.990Z,23.92
2018-02-19T21:26:59.681Z,25.52
2018-02-19T21:29:28.072Z,25.30
2018-02-19T21:31:55.657Z,25.10
2018-02-19T21:34:23.280Z,25.10
2018-02-19T21:36:50.801Z,25.52
2018-02-19T21:39:18.397Z,24.65
2018-02-19T21:41:45.883Z,25.50
2018-02-19T21:44:14.250Z,25.55
2018-02-19T21:46:42.522Z,25.55
2018-02-19T21:49:10.163Z,22.15
2018-02-19T21:51:38.133Z,24.12
2018-02-19T21:54:06.522Z,23.38
2018-02-19T21:56:34.111Z,22.05
2018-02-19T21:59:02.788Z,21.10
2018-02-19T22:01:31.285Z,21.83
2018-02-19T22:03:59.707Z,23.98
2018-02-19T22:06:27.401Z,23.60
2018-02-19T22:08:55.907Z,22.80
2018-02-19T22:11:24.318Z,22.55
2018-02-19T22:13:52.692Z,22.50
2018-02-19T22:16:20.365Z,22.52
2018-02-19T22:18:47.866Z,22.30
2018-02-19T22:21:19.154Z,23.38
2018-02-19T22:23:46.842Z,23.02
2018-02-19T22:26:14.355Z,24.87
2018-02-19T22:28:42.642Z,25.12
2018-02-19T22:31:10.335Z,25.65
2018-02-19T22:33:38.033Z,24.60
2018-02-19T22:36:05.696Z,24.90
2018-02-19T22:38:34.152Z,28.10
2018-02-19T22:41:01.771Z,24.98
2018-02-19T22:43:29.371Z,26.90
2018-02-19T22:45:57.147Z,27.08
2018-02-19T22:48:25.754Z,24.90
2018-02-19T22:50:54.246Z,26.87
2018-02-19T22:53:21.969Z,28.70
2018-02-19T22:55:49.608Z,24.17
2018-02-19T22:58:17.384Z,27.87
2018-02-19T23:00:45.900Z,28.48
2018-02-19T23:03:13.475Z,26.35
2018-02-19T23:05:41.126Z,29.02
2018-02-19T23:08:08.790Z,26.95
2018-02-19T23:10:36.496Z,28.70
2018-02-19T23:13:04.352Z,25.70
2018-02-19T23:15:33.947Z,26.90
2018-02-19T23:18:01.672Z,26.17
2018-02-19T23:20:29.692Z,25.37
2018-02-19T23:22:58.948Z,25.98
2018-02-19T23:25:27.804Z,24.70
2018-02-19T23:27:56.792Z,26.85
2018-02-19T23:30:27.706Z,23.40
2018-02-19T23:32:56.194Z,24.00
2018-02-19T23:35:30.391Z,23.62
2018-02-19T23:37:59.177Z,23.75
2018-02-19T23:40:27.617Z,22.70
2018-02-19T23:42:55.879Z,23.40
2018-02-19T23:45:23.523Z,23.73
2018-02-19T23:47:51.140Z,24.98
2018-02-19T23:50:21.474Z,25.92
2018-02-19T23:52:51.977Z,27.00
2018-02-19T23:55:20.088Z,23.45
2018-02-19T23:57:48.715Z,25.30
